Time;durP1;ratioP1;P1;durP2;ratioP2;P2;SDS_P1;SDS_P2;PMS_P1;PMS_P2;Temp;Humidity;BMP_temperature;BMP_pressure;BME280_temperature;BME280_humidity;BME280_pressure;Samples;Min_cycle;Max_cycle;Signal;HPM_P1;HPM_P2
2022/11/13 00:01:18;;;;;;;16.70;14.90;;;6.80;1.00;;;;;;4876343;29;20967;-77
2022/11/13 00:03:46;;;;;;;16.90;15.07;;;6.70;1.00;;;;;;4881726;29;21386;-79
2022/11/13 00:06:15;;;;;;;17.57;15.10;;;6.70;1.00;;;;;;4878732;29;20468;-78
2022/11/13 00:08:43;;;;;;;16.67;15.10;;;6.60;1.00;;;;;;4881168;29;20552;-78
2022/11/13 00:11:13;;;;;;;19.43;16.70;;;6.60;1.00;;;;;;4880353;29;20462;-79
2022/11/13 00:13:43;;;;;;;17.70;15.90;;;6.50;1.00;;;;;;4878683;29;20529;-78
2022/11/13 00:16:14;;;;;;;22.60;17.40;;;6.50;1.00;;;;;;4882355;29;20459;-78
2022/11/13 00:18:43;;;;;;;19.07;17.07;;;6.50;1.00;;;;;;4881375;29;21014;-78
2022/11/13 00:21:14;;;;;;;17.60;15.70;;;6.40;1.00;;;;;;4879884;29;20471;-78
2022/11/13 00:23:43;;;;;;;23.70;19.07;;;6.40;1.00;;;;;;4879756;29;20999;-78
2022/11/13 00:26:13;;;;;;;18.53;16.70;;;6.40;1.00;;;;;;4878176;29;20475;-79
2022/11/13 00:28:42;;;;;;;18.47;16.70;;;6.40;1.00;;;;;;4880410;29;20958;-79
2022/11/13 00:31:14;;;;;;;20.63;18.13;;;6.40;1.00;;;;;;4873328;29;20494;-78
2022/11/13 00:33:42;;;;;;;21.93;17.27;;;6.50;1.00;;;;;;4877087;29;20469;-79
2022/11/13 00:36:30;;;;;;;19.33;17.30;;;6.40;1.00;;;;;;4873509;29;20478;-80
2022/11/13 00:38:58;;;;;;;21.03;17.43;;;6.30;1.00;;;;;;4880436;29;20579;-79
2022/11/13 00:41:26;;;;;;;15.97;14.27;;;6.40;1.00;;;;;;4882521;29;20458;-78
2022/11/13 00:43:54;;;;;;;15.23;13.73;;;6.40;1.00;;;;;;4879012;29;20573;-79
2022/11/13 00:46:24;;;;;;;13.13;11.80;;;6.40;1.00;;;;;;4877835;29;20773;-79
2022/11/13 00:48:52;;;;;;;12.07;10.90;;;6.40;1.00;;;;;;4877816;29;20678;-78
2022/11/13 00:51:20;;;;;;;14.70;12.90;;;6.20;1.00;;;;;;4878485;29;21107;-78
2022/11/13 00:53:48;;;;;;;17.00;13.00;;;6.20;1.00;;;;;;4875466;29;20496;-78
2022/11/13 00:56:17;;;;;;;15.30;13.83;;;6.20;1.00;;;;;;4870276;29;20517;-79
2022/11/13 00:58:45;;;;;;;12.77;11.60;;;6.20;1.00;;;;;;4877224;29;20578;-79
2022/11/13 01:01:15;;;;;;;12.60;11.37;;;6.10;1.00;;;;;;4887111;29;20587;-78
2022/11/13 01:03:45;;;;;;;11.50;10.40;;;6.20;1.00;;;;;;4882097;29;20581;-79
2022/11/13 01:06:16;;;;;;;12.77;11.53;;;6.30;1.00;;;;;;4880153;29;20471;-79
2022/11/13 01:08:44;;;;;;;13.40;11.90;;;6.20;1.00;;;;;;4878581;29;20597;-79
2022/11/13 01:11:14;;;;;;;14.43;12.23;;;6.20;1.00;;;;;;4883537;29;20557;-78
2022/11/13 01:13:45;;;;;;;14.47;12.97;;;6.20;1.00;;;;;;4886048;29;20467;-80
2022/11/13 01:16:14;;;;;;;14.40;12.93;;;6.10;1.00;;;;;;4883864;29;20468;-78
2022/11/13 01:18:44;;;;;;;14.20;12.77;;;6.00;1.00;;;;;;4885349;29;20931;-80
2022/11/13 01:21:14;;;;;;;12.73;11.43;;;6.00;1.00;;;;;;4885828;29;20550;-79
2022/11/13 01:23:42;;;;;;;13.63;12.40;;;5.90;1.00;;;;;;4883741;29;20486;-79
2022/11/13 01:26:14;;;;;;;12.70;11.50;;;5.80;1.00;;;;;;4886569;29;20483;-79
2022/11/13 01:28:43;;;;;;;12.83;11.67;;;5.90;1.00;;;;;;4885547;29;20898;-78
2022/11/13 01:31:14;;;;;;;10.13;9.23;;;6.00;1.00;;;;;;4882256;29;20970;-79
2022/11/13 01:33:42;;;;;;;11.13;10.03;;;5.80;1.00;;;;;;4876156;29;20470;-79
2022/11/13 01:36:14;;;;;;;11.87;10.60;;;5.80;1.00;;;;;;4883431;29;20494;-78
2022/11/13 01:38:42;;;;;;;11.13;9.73;;;5.70;1.00;;;;;;4885067;29;20479;-79
2022/11/13 01:41:16;;;;;;;10.70;9.80;;;5.80;1.00;;;;;;4886052;29;20555;-78
2022/11/13 01:43:51;;;;;;;11.70;10.53;;;5.80;1.00;;;;;;4880562;29;21054;-78
2022/11/13 01:46:26;;;;;;;11.77;10.57;;;6.00;1.00;;;;;;4885374;29;20566;-78
2022/11/13 01:49:00;;;;;;;11.27;10.13;;;6.00;1.00;;;;;;4883398;29;21091;-78
2022/11/13 01:51:32;;;;;;;14.93;12.57;;;6.00;1.00;;;;;;4884166;29;20481;-77
2022/11/13 01:54:02;;;;;;;12.40;11.40;;;5.80;1.00;;;;;;4881455;29;21106;-79
2022/11/13 01:56:31;;;;;;;13.80;11.43;;;5.90;8.30;;;;;;4884300;29;20494;-78
2022/11/13 01:59:04;;;;;;;15.20;11.80;;;5.80;1.00;;;;;;4882097;29;20574;-77
2022/11/13 02:01:33;;;;;;;15.80;12.27;;;5.70;1.00;;;;;;4878203;29;20516;-77
2022/11/13 02:04:01;;;;;;;13.37;11.97;;;5.60;1.00;;;;;;4881633;29;20491;-78
2022/11/13 02:06:36;;;;;;;13.23;11.93;;;5.60;1.00;;;;;;4884980;29;20472;-77
2022/11/13 02:09:05;;;;;;;13.17;11.93;;;5.70;1.00;;;;;;4883295;29;20710;-78
2022/11/13 02:11:33;;;;;;;12.57;11.27;;;5.50;1.00;;;;;;4881653;29;20585;-77
2022/11/13 02:14:03;;;;;;;12.20;11.10;;;5.40;1.00;;;;;;4883697;29;20460;-77
2022/11/13 02:16:32;;;;;;;11.43;10.33;;;5.50;1.00;;;;;;4879302;29;20559;-77
2022/11/13 02:19:01;;;;;;;9.53;8.63;;;5.70;1.00;;;;;;4881507;29;20501;-78
2022/11/13 02:21:41;;;;;;;9.93;9.13;;;5.60;1.00;;;;;;4884694;29;20588;-77
2022/11/13 02:24:25;;;;;;;10.20;9.20;;;5.60;1.00;;;;;;4886155;29;20487;-78
2022/11/13 02:26:58;;;;;;;9.73;8.63;;;5.50;1.00;;;;;;4883318;29;20467;-78
2022/11/13 02:29:26;;;;;;;8.87;8.10;;;5.60;1.00;;;;;;4883416;29;20534;-78
2022/11/13 02:31:54;;;;;;;8.60;7.90;;;5.60;1.00;;;;;;4881922;29;20482;-78
2022/11/13 02:34:22;;;;;;;9.97;9.13;;;5.50;1.00;;;;;;4885745;29;20466;-79
2022/11/13 02:36:51;;;;;;;9.23;8.40;;;5.40;1.00;;;;;;4882607;29;20455;-79
2022/11/13 02:39:20;;;;;;;10.20;8.90;;;5.20;1.00;;;;;;4885147;29;20546;-79
2022/11/13 02:41:48;;;;;;;9.80;8.80;;;5.30;1.00;;;;;;4881503;29;20559;-80
2022/11/13 02:44:16;;;;;;;9.45;8.48;;;5.20;1.00;;;;;;4882242;29;20986;-80
2022/11/13 02:46:44;;;;;;;8.97;8.20;;;5.20;1.00;;;;;;4880198;29;20769;-78
2022/11/13 02:49:13;;;;;;;9.73;8.93;;;5.20;1.00;;;;;;4880681;29;21038;-78
2022/11/13 02:51:41;;;;;;;10.15;9.15;;;5.30;1.00;;;;;;4880450;29;20467;-79
2022/11/13 02:54:09;;;;;;;9.23;8.27;;;5.20;1.00;;;;;;4882694;29;20204;-78
2022/11/13 02:56:45;;;;;;;8.73;8.07;;;5.10;1.00;;;;;;4882432;29;21030;-78
2022/11/13 02:59:13;;;;;;;8.03;7.43;;;5.20;1.00;;;;;;4881566;29;20321;-77
2022/11/13 03:01:41;;;;;;;8.20;7.50;;;5.20;1.00;;;;;;4880327;29;20987;-78
2022/11/13 03:04:09;;;;;;;10.27;9.27;;;5.30;1.00;;;;;;4879926;29;20226;-79
2022/11/13 03:06:37;;;;;;;10.63;9.73;;;5.20;1.00;;;;;;4881373;29;20466;-78
2022/11/13 03:09:05;;;;;;;10.37;9.40;;;5.30;1.00;;;;;;4879660;29;20484;-78
2022/11/13 03:11:34;;;;;;;11.00;9.90;;;5.30;1.00;;;;;;4882142;29;20606;-79
2022/11/13 03:14:03;;;;;;;9.67;8.77;;;5.20;9.50;;;;;;4894470;29;20471;-80
2022/11/13 03:16:31;;;;;;;10.85;8.57;;;5.20;46.80;;;;;;4880888;29;20909;-81
2022/11/13 03:18:59;;;;;;;9.63;8.77;;;5.00;99.90;;;;;;4884029;29;20237;-80
2022/11/13 03:21:27;;;;;;;8.65;8.02;;;5.10;50.10;;;;;;4884118;29;20558;-80
2022/11/13 03:23:55;;;;;;;10.13;8.90;;;5.10;1.00;;;;;;4880786;29;20215;-80
2022/11/13 03:26:24;;;;;;;20.77;9.30;;;4.90;98.40;;;;;;4883722;29;20473;-80
2022/11/13 03:28:52;;;;;;;9.35;8.45;;;4.80;99.90;;;;;;4883538;29;20476;-78
2022/11/13 03:31:22;;;;;;;8.60;7.82;;;4.90;99.90;;;;;;4881606;29;20195;-79
2022/11/13 03:33:53;;;;;;;8.65;7.82;;;4.90;99.90;;;;;;4879069;29;20190;-78
2022/11/13 03:36:21;;;;;;;9.30;8.50;;;4.90;72.90;;;;;;4883014;29;20211;-77
2022/11/13 03:38:49;;;;;;;9.55;7.90;;;4.90;1.00;;;;;;4880934;29;20471;-78
2022/11/13 03:41:17;;;;;;;7.30;6.80;;;4.90;1.00;;;;;;4878417;29;20668;-79
2022/11/13 03:43:45;;;;;;;8.05;7.45;;;4.90;1.00;;;;;;4878209;29;20486;-78
2022/11/13 03:46:13;;;;;;;8.02;7.43;;;4.80;1.00;;;;;;4878064;29;20219;-78
2022/11/13 03:48:42;;;;;;;7.70;7.10;;;4.80;1.00;;;;;;4879124;29;20227;-78
2022/11/13 03:51:11;;;;;;;8.40;7.70;;;4.70;1.00;;;;;;4880827;29;20326;-78
2022/11/13 03:53:39;;;;;;;7.20;6.67;;;4.80;1.00;;;;;;4880567;29;20545;-78
2022/11/13 03:56:07;;;;;;;8.63;7.83;;;4.70;1.00;;;;;;4881343;29;20543;-78
2022/11/13 03:58:35;;;;;;;7.57;6.88;;;4.70;1.00;;;;;;4886686;29;20575;-79
2022/11/13 04:01:07;;;;;;;8.15;7.55;;;4.60;1.00;;;;;;4878664;29;20215;-78
2022/11/13 04:03:36;;;;;;;8.03;7.33;;;4.60;1.00;;;;;;4879087;29;20327;-78
2022/11/13 04:06:05;;;;;;;7.80;7.30;;;4.70;1.00;;;;;;4879409;29;20468;-79
2022/11/13 04:08:34;;;;;;;7.68;7.18;;;4.70;1.00;;;;;;4882921;29;20738;-79
2022/11/13 04:11:10;;;;;;;7.20;6.80;;;4.60;1.00;;;;;;4880735;29;20207;-78
2022/11/13 04:13:38;;;;;;;7.13;6.60;;;4.60;1.00;;;;;;4880372;29;21457;-78
2022/11/13 04:16:07;;;;;;;7.22;6.72;;;4.60;1.00;;;;;;4881882;29;20206;-80
2022/11/13 04:18:35;;;;;;;7.47;6.78;;;4.80;1.00;;;;;;4879401;29;20314;-77
2022/11/13 04:21:05;;;;;;;7.50;7.00;;;4.60;1.00;;;;;;4880935;29;20217;-78
2022/11/13 04:23:33;;;;;;;7.50;6.90;;;4.40;1.00;;;;;;4881827;29;20655;-79
2022/11/13 04:26:01;;;;;;;8.20;7.60;;;4.30;1.00;;;;;;4883724;29;20325;-77
2022/11/13 04:28:30;;;;;;;7.00;6.50;;;4.60;1.00;;;;;;4880096;29;20230;-78
2022/11/13 04:30:58;;;;;;;7.30;6.80;;;4.70;1.00;;;;;;4878983;29;20211;-79
2022/11/13 04:33:26;;;;;;;6.88;6.32;;;4.50;1.00;;;;;;4883422;29;20231;-78
2022/11/13 04:35:55;;;;;;;7.10;6.60;;;4.50;1.00;;;;;;4883340;29;20190;-79
2022/11/13 04:38:24;;;;;;;7.47;6.90;;;4.70;1.00;;;;;;4881788;29;20360;-79
2022/11/13 04:42:47;;;;;;;7.20;6.70;;;4.70;1.00;;;;;;4882230;29;20199;-78
2022/11/13 04:43:40;;;;;;;7.13;6.63;;;4.50;1.00;;;;;;4881938;29;20214;-78
2022/11/13 04:46:08;;;;;;;8.02;7.35;;;4.40;1.00;;;;;;4880705;29;20227;-79
2022/11/13 04:48:36;;;;;;;6.80;6.30;;;4.60;1.00;;;;;;4884259;29;20229;-78
2022/11/13 04:51:05;;;;;;;6.47;6.07;;;4.60;1.00;;;;;;4879754;29;20301;-79
2022/11/13 04:53:34;;;;;;;7.13;6.53;;;4.60;1.00;;;;;;4882374;29;20289;-78
2022/11/13 04:56:02;;;;;;;6.70;6.13;;;4.40;1.00;;;;;;4881644;29;20297;-78
2022/11/13 04:58:30;;;;;;;7.90;7.30;;;4.40;1.00;;;;;;4879834;29;20475;-77
2022/11/13 05:00:58;;;;;;;7.20;6.60;;;4.30;1.00;;;;;;4876534;29;20203;-79
2022/11/13 05:03:27;;;;;;;6.50;6.00;;;4.30;1.00;;;;;;4878078;29;20262;-77
2022/11/13 05:06:02;;;;;;;7.70;7.10;;;4.40;1.00;;;;;;4877989;29;20763;-77
2022/11/13 05:08:30;;;;;;;7.75;7.05;;;4.30;1.00;;;;;;4878777;29;20671;-78
2022/11/13 05:11:00;;;;;;;7.30;6.78;;;4.20;1.00;;;;;;4876418;29;20210;-79
2022/11/13 05:13:31;;;;;;;7.70;7.13;;;4.30;1.00;;;;;;4880964;29;20213;-79
2022/11/13 05:16:04;;;;;;;8.77;8.07;;;4.30;1.00;;;;;;4878248;29;20215;-78
2022/11/13 05:18:32;;;;;;;10.95;8.10;;;4.40;1.00;;;;;;4884052;29;20332;-77
2022/11/13 05:21:01;;;;;;;13.90;8.47;;;4.50;34.00;;;;;;4883529;29;20246;-78
2022/11/13 05:23:29;;;;;;;7.22;6.72;;;4.60;99.90;;;;;;4879074;29;20463;-77
2022/11/13 05:26:04;;;;;;;7.30;6.70;;;4.50;22.30;;;;;;4882953;29;20247;-78
2022/11/13 05:28:32;;;;;;;7.85;7.15;;;4.40;1.00;;;;;;4880835;29;20485;-78
2022/11/13 05:31:05;;;;;;;7.35;6.85;;;4.20;1.00;;;;;;4881366;29;20206;-79
2022/11/13 05:33:34;;;;;;;6.68;6.07;;;4.30;1.00;;;;;;4879449;29;20210;-77
2022/11/13 05:36:03;;;;;;;7.05;6.40;;;4.30;1.00;;;;;;4880349;29;20259;-78
2022/11/13 05:38:32;;;;;;;6.57;6.18;;;4.30;1.00;;;;;;4884371;29;20962;-78
2022/11/13 05:41:07;;;;;;;7.05;6.40;;;4.20;1.00;;;;;;4879390;29;20222;-78
2022/11/13 05:43:36;;;;;;;7.95;7.15;;;4.20;1.00;;;;;;4873990;29;20298;-78
2022/11/13 05:46:06;;;;;;;7.50;6.90;;;4.00;1.00;;;;;;4848515;29;1113603;-79
2022/11/13 05:48:35;;;;;;;7.35;6.78;;;4.10;1.00;;;;;;4884396;29;20572;-78
2022/11/13 05:51:04;;;;;;;8.30;7.60;;;4.10;1.00;;;;;;4880457;29;20306;-78
2022/11/13 05:53:34;;;;;;;6.50;5.95;;;4.10;1.00;;;;;;4881397;29;20202;-77
2022/11/13 05:56:05;;;;;;;7.50;6.97;;;3.90;1.00;;;;;;4885631;29;20205;-78
2022/11/13 05:58:34;;;;;;;7.45;6.85;;;4.00;1.00;;;;;;4884597;29;20226;-79
2022/11/13 06:01:10;;;;;;;7.97;7.32;;;4.10;1.00;;;;;;4885078;29;20207;-80
2022/11/13 06:03:38;;;;;;;6.93;6.40;;;4.00;1.00;;;;;;4884286;29;20205;-79
2022/11/13 06:06:08;;;;;;;8.70;7.15;;;4.00;1.00;;;;;;4883640;29;20226;-79
2022/11/13 06:08:36;;;;;;;7.72;7.05;;;4.10;1.00;;;;;;4886417;29;20230;-78
2022/11/13 06:11:07;;;;;;;6.13;5.72;;;4.20;1.00;;;;;;4881114;29;20203;-78
2022/11/13 06:13:36;;;;;;;7.32;6.63;;;4.20;1.00;;;;;;4885516;29;20630;-80
2022/11/13 06:16:06;;;;;;;6.95;6.38;;;4.30;1.00;;;;;;4881752;29;20210;-79
2022/11/13 06:18:35;;;;;;;6.93;6.27;;;4.30;1.00;;;;;;4884753;29;20712;-78
2022/11/13 06:21:07;;;;;;;7.65;7.18;;;4.20;1.00;;;;;;4880505;29;21342;-79
2022/11/13 06:23:37;;;;;;;6.65;6.15;;;4.30;1.00;;;;;;4883999;29;20215;-78
2022/11/13 06:26:10;;;;;;;7.00;6.50;;;4.40;1.00;;;;;;4881372;29;20227;-78
2022/11/13 06:28:39;;;;;;;7.25;6.60;;;4.40;1.00;;;;;;4879632;29;20246;-79
2022/11/13 06:31:09;;;;;;;6.70;6.13;;;4.30;1.00;;;;;;4881364;29;20222;-79
2022/11/13 06:33:38;;;;;;;7.20;6.70;;;4.30;1.00;;;;;;4884060;29;20283;-79
2022/11/13 06:36:09;;;;;;;6.20;5.70;;;4.20;1.00;;;;;;4882568;29;20195;-79
2022/11/13 06:38:39;;;;;;;6.20;5.80;;;4.20;1.00;;;;;;4890283;29;20268;-79
2022/11/13 06:41:10;;;;;;;6.95;6.45;;;4.30;1.00;;;;;;4890905;29;20242;-78
2022/11/13 06:43:38;;;;;;;7.25;6.65;;;4.00;1.00;;;;;;4888954;29;20203;-79
2022/11/13 06:46:08;;;;;;;11.52;7.25;;;4.00;1.00;;;;;;4887629;29;20254;-78
2022/11/13 06:48:36;;;;;;;8.73;7.82;;;3.90;1.00;;;;;;4883818;29;20222;-78
2022/11/13 06:51:07;;;;;;;8.43;7.72;;;4.10;1.00;;;;;;4881990;29;20301;-79
2022/11/13 06:53:35;;;;;;;9.30;8.40;;;4.20;1.00;;;;;;4889016;29;20207;-78
2022/11/13 06:56:06;;;;;;;9.00;8.05;;;4.30;1.00;;;;;;4877610;29;20207;-78
2022/11/13 06:58:36;;;;;;;8.77;7.95;;;4.10;1.00;;;;;;4884334;29;20243;-78
2022/11/13 07:01:07;;;;;;;8.48;7.32;;;4.10;1.00;;;;;;4881986;29;20260;-80
2022/11/13 07:03:36;;;;;;;12.52;11.23;;;4.00;1.00;;;;;;4878246;29;20202;-78
2022/11/13 07:06:06;;;;;;;8.25;7.65;;;4.20;1.00;;;;;;4879825;29;20227;-78
2022/11/13 07:08:34;;;;;;;8.57;7.70;;;4.20;1.00;;;;;;4879647;29;20237;-78
2022/11/13 07:11:02;;;;;;;7.40;6.90;;;4.20;1.00;;;;;;4882914;29;20282;-79
2022/11/13 07:13:30;;;;;;;8.80;8.00;;;4.20;1.00;;;;;;4883879;29;20234;-78
2022/11/13 07:16:04;;;;;;;8.30;7.60;;;4.10;1.00;;;;;;4880682;29;20298;-78
2022/11/13 07:18:44;;;;;;;9.07;8.07;;;4.10;1.00;;;;;;4881413;29;20902;-79
2022/11/13 07:21:13;;;;;;;8.02;7.32;;;4.20;1.00;;;;;;4885152;29;20217;-79
2022/11/13 07:23:42;;;;;;;9.20;8.30;;;4.20;1.00;;;;;;4882210;29;20262;-77
2022/11/13 07:26:10;;;;;;;8.50;7.63;;;4.50;1.00;;;;;;4882947;29;20314;-79
2022/11/13 07:28:39;;;;;;;8.00;7.30;;;4.70;1.00;;;;;;4884461;29;20718;-79
2022/11/13 07:31:11;;;;;;;8.20;7.40;;;4.90;1.00;;;;;;4885248;29;20542;-79
2022/11/13 07:33:39;;;;;;;8.67;7.97;;;5.20;1.00;;;;;;4884960;29;20589;-79
2022/11/13 07:36:08;;;;;;;8.50;7.80;;;5.50;1.00;;;;;;4880186;29;20558;-79
2022/11/13 07:38:36;;;;;;;7.77;7.27;;;5.70;1.00;;;;;;4883853;29;20570;-79
2022/11/13 07:41:05;;;;;;;7.87;7.37;;;5.80;1.00;;;;;;4882944;29;20455;-79
2022/11/13 07:43:34;;;;;;;8.10;7.50;;;5.90;1.00;;;;;;4882168;29;20546;-79
2022/11/13 07:46:02;;;;;;;8.60;7.90;;;6.10;1.00;;;;;;4881363;29;20519;-79
2022/11/13 07:48:32;;;;;;;8.60;7.70;;;6.20;1.00;;;;;;4882816;29;20540;-79
2022/11/13 07:51:01;;;;;;;8.47;7.70;;;6.30;1.00;;;;;;4880525;29;20495;-78
2022/11/13 07:53:30;;;;;;;8.47;7.77;;;6.40;1.00;;;;;;4882528;29;20500;-79
2022/11/13 07:56:00;;;;;;;8.57;7.87;;;6.50;1.00;;;;;;4885805;29;20551;-79
2022/11/13 07:58:29;;;;;;;8.43;7.77;;;6.50;1.00;;;;;;4882205;29;20559;-79
2022/11/13 08:01:02;;;;;;;9.97;8.43;;;6.60;1.00;;;;;;4884167;29;20457;-78
2022/11/13 08:03:31;;;;;;;8.10;7.40;;;6.80;1.00;;;;;;4884661;29;20464;-78
2022/11/13 08:06:01;;;;;;;8.10;7.50;;;7.00;99.90;;;;;;4896950;29;20493;-78
2022/11/13 08:08:29;;;;;;;7.17;6.40;;;7.10;1.00;;;;;;4880687;29;21013;-79
2022/11/13 08:10:58;;;;;;;9.20;8.40;;;7.20;99.90;;;;;;4881635;29;20886;-79
2022/11/13 08:13:27;;;;;;;9.00;8.20;;;7.20;99.90;;;;;;4885000;29;20461;-79
2022/11/13 08:16:00;;;;;;;9.97;9.13;;;7.30;99.90;;;;;;4883809;29;20471;-80
2022/11/13 08:18:28;;;;;;;9.90;9.10;;;7.30;99.90;;;;;;4880720;29;20492;-79
2022/11/13 08:21:01;;;;;;;10.63;9.73;;;7.40;99.90;;;;;;4883827;29;20465;-80
2022/11/13 08:23:29;;;;;;;9.40;8.60;;;7.60;99.90;;;;;;4885043;29;20995;-79
2022/11/13 08:25:58;;;;;;;9.60;8.80;;;7.60;99.90;;;;;;4880550;29;21061;-78
2022/11/13 08:28:26;;;;;;;9.53;8.83;;;7.40;99.90;;;;;;4884358;29;20851;-78
2022/11/13 08:30:55;;;;;;;9.47;8.70;;;7.50;99.90;;;;;;4883783;29;20471;-79
2022/11/13 08:33:23;;;;;;;9.43;8.70;;;7.50;99.90;;;;;;4887407;29;20869;-78
2022/11/13 08:35:55;;;;;;;20.70;9.07;;;7.50;99.90;;;;;;4882116;29;20583;-79
2022/11/13 08:38:25;;;;;;;8.00;7.50;;;7.70;99.90;;;;;;4883889;29;20517;-81
2022/11/13 08:40:56;;;;;;;8.80;8.13;;;7.70;99.90;;;;;;4884862;29;20474;-79
2022/11/13 08:43:25;;;;;;;8.00;7.50;;;7.70;99.90;;;;;;4885402;29;20500;-79
2022/11/13 08:45:54;;;;;;;7.70;7.20;;;7.60;99.90;;;;;;4882584;29;20899;-80
2022/11/13 08:48:22;;;;;;;9.40;8.60;;;7.70;99.90;;;;;;4886016;29;20528;-80
2022/11/13 08:50:52;;;;;;;10.50;9.80;;;7.70;1.00;;;;;;4878804;29;20461;-80
2022/11/13 08:53:21;;;;;;;8.70;8.10;;;7.70;99.90;;;;;;4885631;29;20971;-80
2022/11/13 08:55:50;;;;;;;9.27;8.67;;;7.70;1.00;;;;;;4881851;29;20529;-79
2022/11/13 08:58:19;;;;;;;8.40;7.90;;;7.70;1.00;;;;;;4885671;29;20553;-79
2022/11/13 09:00:47;;;;;;;9.10;8.30;;;7.80;99.90;;;;;;4882583;29;20603;-79
2022/11/13 09:03:15;;;;;;;10.07;9.17;;;7.70;99.90;;;;;;4881513;29;20495;-80
2022/11/13 09:05:43;;;;;;;8.43;7.83;;;7.60;1.00;;;;;;4881788;29;20496;-78
2022/11/13 09:08:11;;;;;;;8.43;7.70;;;7.70;1.00;;;;;;4886259;29;20488;-80
2022/11/13 09:10:39;;;;;;;9.37;8.67;;;7.90;1.00;;;;;;4881306;29;20449;-79
2022/11/13 09:13:10;;;;;;;8.80;8.20;;;7.80;1.00;;;;;;4882256;29;20466;-79
2022/11/13 09:15:41;;;;;;;8.27;7.70;;;8.10;1.00;;;;;;4882339;29;20454;-80
2022/11/13 09:18:10;;;;;;;9.00;8.37;;;8.30;1.00;;;;;;4878421;29;20516;-78
2022/11/13 09:20:38;;;;;;;9.00;8.20;;;8.70;1.00;;;;;;4881497;29;20881;-78
2022/11/13 09:23:08;;;;;;;9.47;8.70;;;9.60;1.00;;;;;;4882699;29;20485;-79
2022/11/13 09:25:37;;;;;;;9.97;9.27;;;10.60;99.90;;;;;;4882709;29;20480;-79
2022/11/13 09:28:06;;;;;;;9.27;8.57;;;11.20;99.90;;;;;;4877774;29;20497;-79
2022/11/13 09:30:38;;;;;;;9.87;9.07;;;12.10;99.90;;;;;;4883670;29;20483;-79
2022/11/13 09:33:06;;;;;;;10.80;10.00;;;12.80;99.90;;;;;;4888070;29;21237;-79
2022/11/13 09:35:34;;;;;;;9.67;9.07;;;13.40;99.90;;;;;;4883123;29;20494;-79
2022/11/13 09:38:05;;;;;;;9.97;9.17;;;14.10;99.90;;;;;;4884535;29;20558;-79
2022/11/13 09:40:43;;;;;;;9.00;8.40;;;14.60;99.90;;;;;;4882944;29;20461;-79
2022/11/13 09:43:24;;;;;;;8.40;7.80;;;15.10;99.90;;;;;;4884144;29;20530;-78
2022/11/13 09:45:58;;;;;;;9.30;8.70;;;15.60;99.90;;;;;;4878643;29;21021;-79
2022/11/13 09:48:32;;;;;;;8.63;8.13;;;16.30;99.90;;;;;;4886571;29;20924;-78
2022/11/13 09:51:06;;;;;;;8.97;8.37;;;17.00;99.90;;;;;;4884297;29;20505;-78
2022/11/13 09:53:36;;;;;;;8.63;8.10;;;17.50;99.90;;;;;;4882228;29;20458;-79
2022/11/13 09:56:16;;;;;;;8.40;7.87;;;17.70;99.90;;;;;;4881327;29;21090;-79
2022/11/13 09:58:50;;;;;;;9.17;8.57;;;18.20;99.90;;;;;;4885307;29;20562;-80
2022/11/13 10:01:29;;;;;;;7.67;7.27;;;18.60;99.90;;;;;;4885849;29;21047;-79
2022/11/13 10:04:02;;;;;;;8.13;7.63;;;18.90;99.90;;;;;;4885388;29;20461;-79
2022/11/13 10:06:57;;;;;;;7.27;6.77;;;19.60;99.90;;;;;;4882217;29;20493;-79
2022/11/13 10:09:36;;;;;;;7.20;6.57;;;20.20;99.90;;;;;;4883249;29;20488;-80
2022/11/13 10:12:07;;;;;;;6.37;5.97;;;20.80;99.90;;;;;;4886571;29;20511;-78
2022/11/13 10:14:38;;;;;;;6.20;5.80;;;21.20;99.90;;;;;;4885438;29;20483;-78
2022/11/13 10:17:14;;;;;;;6.53;6.13;;;21.60;99.90;;;;;;4882239;29;20576;-78
2022/11/13 10:19:53;;;;;;;6.57;6.07;;;21.80;99.90;;;;;;4883064;29;20948;-78
2022/11/13 10:22:28;;;;;;;6.20;5.80;;;22.60;99.90;;;;;;4884299;29;20558;-78
2022/11/13 10:25:12;;;;;;;5.77;5.47;;;22.80;99.90;;;;;;4880536;29;20498;-79
2022/11/13 10:27:40;;;;;;;5.80;5.37;;;22.70;99.90;;;;;;4881730;29;20490;-77
2022/11/13 10:30:15;;;;;;;6.20;5.90;;;23.40;99.90;;;;;;4883647;29;20480;-78
2022/11/13 10:32:46;;;;;;;6.67;6.17;;;23.30;99.90;;;;;;4883263;29;20459;-77
2022/11/13 10:35:31;;;;;;;6.47;5.97;;;23.60;99.90;;;;;;4882493;29;20569;-77
2022/11/13 10:38:03;;;;;;;6.00;5.70;;;23.30;99.90;;;;;;4886085;29;20451;-78
2022/11/13 10:40:37;;;;;;;5.50;5.23;;;21.60;99.90;;;;;;4884920;29;20475;-77
2022/11/13 10:43:13;;;;;;;6.13;5.73;;;19.70;99.90;;;;;;4881496;29;20545;-78
2022/11/13 10:45:42;;;;;;;6.80;6.30;;;18.90;99.90;;;;;;4880999;29;21334;-77
2022/11/13 10:48:21;;;;;;;6.20;5.73;;;18.20;99.90;;;;;;4880633;29;20490;-78
2022/11/13 10:50:55;;;;;;;6.23;5.90;;;17.80;99.90;;;;;;4880467;29;20507;-78
2022/11/13 10:53:26;;;;;;;6.10;5.70;;;17.70;99.90;;;;;;4884385;29;20551;-78
2022/11/13 10:55:59;;;;;;;5.93;5.63;;;17.90;99.90;;;;;;4884653;29;20463;-77
2022/11/13 10:58:27;;;;;;;6.50;6.10;;;17.80;99.90;;;;;;4882224;29;21010;-77
2022/11/13 11:00:56;;;;;;;6.60;6.20;;;17.70;99.90;;;;;;4884222;29;20466;-78
2022/11/13 11:03:28;;;;;;;5.93;5.43;;;18.30;99.90;;;;;;4880553;29;20484;-78
2022/11/13 11:05:59;;;;;;;6.13;5.70;;;19.70;99.90;;;;;;4883455;29;20462;-77
2022/11/13 11:08:31;;;;;;;6.10;5.70;;;21.90;99.90;;;;;;4880374;29;20872;-77
2022/11/13 11:13:48;;;;;;;6.43;5.87;;;19.20;99.90;;;;;;4879479;29;21010;-77
2022/11/13 11:16:21;;;;;;;6.70;6.20;;;18.20;99.90;;;;;;4883012;29;20502;-78
2022/11/13 11:18:54;;;;;;;6.27;5.77;;;17.70;99.90;;;;;;4880605;29;20514;-77
2022/11/13 11:21:29;;;;;;;5.83;5.50;;;17.10;99.90;;;;;;4885732;29;20467;-79
2022/11/13 11:24:00;;;;;;;5.97;5.67;;;16.90;99.90;;;;;;4880514;29;20460;-78
2022/11/13 11:26:33;;;;;;;6.10;5.70;;;16.80;99.90;;;;;;4883815;29;20896;-79
2022/11/13 11:29:13;;;;;;;5.77;5.37;;;16.50;99.90;;;;;;4882581;29;20868;-79
2022/11/13 11:31:49;;;;;;;6.40;5.90;;;16.20;99.90;;;;;;4879557;29;20569;-79
2022/11/13 11:34:23;;;;;;;6.00;5.57;;;16.20;99.90;;;;;;4884505;29;21513;-79
2022/11/13 11:36:57;;;;;;;5.97;5.50;;;16.00;99.90;;;;;;4881723;29;20458;-78
2022/11/13 11:39:31;;;;;;;6.60;6.10;;;16.10;99.90;;;;;;4880954;29;20510;-78
2022/11/13 11:42:12;;;;;;;6.40;6.00;;;16.00;99.90;;;;;;4881790;29;20470;-79
2022/11/13 11:44:56;;;;;;;5.70;5.20;;;16.10;99.90;;;;;;4885521;29;20455;-81
2022/11/13 11:47:24;;;;;;;6.20;5.80;;;16.20;99.90;;;;;;4887733;29;20459;-82
2022/11/13 11:49:55;;;;;;;6.37;5.93;;;16.20;99.90;;;;;;4889686;29;20524;-81
2022/11/13 11:52:36;;;;;;;8.27;7.63;;;16.20;99.90;;;;;;4890514;29;20560;-80
2022/11/13 11:55:17;;;;;;;7.13;6.63;;;16.20;99.90;;;;;;4890347;29;20459;-81
2022/11/13 11:57:58;;;;;;;7.30;6.80;;;16.20;99.90;;;;;;4883784;29;20561;-83
2022/11/13 12:00:31;;;;;;;7.00;6.50;;;15.80;99.90;;;;;;4893735;29;20291;-81
2022/11/13 12:03:34;;;;;;;6.93;6.00;;;15.70;99.90;;;;;;4885374;29;20619;-81
2022/11/13 12:06:14;;;;;;;6.30;5.80;;;15.50;99.90;;;;;;4861178;29;20473;-83
2022/11/13 12:08:48;;;;;;;5.87;5.30;;;15.60;99.90;;;;;;4898424;29;20224;-81
2022/11/13 12:11:24;;;;;;;6.77;6.17;;;15.70;99.90;;;;;;4902239;29;20470;-86
2022/11/13 12:14:02;;;;;;;6.53;6.07;;;15.60;99.90;;;;;;4898168;29;20470;-84
2022/11/13 12:16:41;;;;;;;5.50;5.20;;;15.70;99.90;;;;;;4889673;29;20475;-81
2022/11/13 12:19:17;;;;;;;5.87;5.47;;;15.70;99.90;;;;;;4894809;29;20838;-81
2022/11/13 12:21:57;;;;;;;5.73;5.27;;;15.60;99.90;;;;;;4895265;29;20460;-80
2022/11/13 12:24:41;;;;;;;5.83;5.47;;;15.70;99.90;;;;;;4889960;29;20482;-83
2022/11/13 12:27:21;;;;;;;7.67;6.97;;;15.80;99.90;;;;;;4885767;29;20460;-81
2022/11/13 12:30:09;;;;;;;6.10;5.60;;;15.80;99.90;;;;;;4887791;29;20539;-82
2022/11/13 12:33:01;;;;;;;6.47;5.97;;;15.90;99.90;;;;;;4887442;29;20566;-82
2022/11/13 12:35:30;;;;;;;5.85;5.45;;;15.90;99.90;;;;;;4894680;29;20464;-81
2022/11/13 12:38:08;;;;;;;7.20;5.57;;;15.80;99.90;;;;;;4892795;29;20235;-79
2022/11/13 12:40:42;;;;;;;6.27;5.73;;;15.70;99.90;;;;;;4883404;29;21023;-81
2022/11/13 12:43:48;;;;;;;6.70;6.30;;;15.70;99.90;;;;;;4884850;29;20976;-80
2022/11/13 12:46:16;;;;;;;5.40;5.10;;;15.70;99.90;;;;;;4886426;29;20568;-81
2022/11/13 12:48:46;;;;;;;5.93;5.63;;;15.70;99.90;;;;;;4890873;29;20600;-82
2022/11/13 12:51:16;;;;;;;5.50;5.10;;;15.70;99.90;;;;;;4886356;29;21118;-80
2022/11/13 12:53:49;;;;;;;5.57;5.17;;;15.70;99.90;;;;;;4883143;29;20234;-80
2022/11/13 12:56:30;;;;;;;5.10;4.83;;;15.60;99.90;;;;;;4886196;29;20472;-80
2022/11/13 12:59:01;;;;;;;5.40;5.10;;;15.70;99.90;;;;;;4876456;29;20487;-79
2022/11/13 13:01:56;;;;;;;6.17;5.67;;;15.70;99.90;;;;;;4881804;29;20464;-79
2022/11/13 13:04:53;;;;;;;4.90;4.60;;;15.50;99.90;;;;;;4878360;29;20451;-81
2022/11/13 13:07:36;;;;;;;5.50;5.00;;;15.50;99.90;;;;;;4882751;29;20537;-81
2022/11/13 13:10:16;;;;;;;5.03;4.53;;;15.40;99.90;;;;;;4884489;29;20578;-79
2022/11/13 13:12:54;;;;;;;4.97;4.63;;;15.50;99.90;;;;;;4884093;29;20483;-77
2022/11/13 13:15:32;;;;;;;4.83;4.53;;;15.50;99.90;;;;;;4885032;29;20464;-81
2022/11/13 13:18:12;;;;;;;5.00;4.70;;;15.50;99.90;;;;;;4884148;29;20546;-80
2022/11/13 13:20:45;;;;;;;4.80;4.60;;;15.50;99.90;;;;;;4884415;29;20561;-80